Time;durP1;ratioP1;P1;durP2;ratioP2;P2;SDS_P1;SDS_P2;PMS_P1;PMS_P2;Temp;Humidity;BMP_temperature;BMP_pressure;BME280_temperature;BME280_humidity;BME280_pressure;Samples;Min_cycle;Max_cycle;Signal;HPM_P1;HPM_P2
2022/06/14 00:01:00;;;;;;;22.80;13.10;;;12.50;99.90;;;;;;4971400;28;20030;-54
2022/06/14 00:03:35;;;;;;;19.83;13.40;;;12.40;99.90;;;;;;4971347;28;20034;-53
2022/06/14 00:06:06;;;;;;;24.50;14.23;;;12.30;99.90;;;;;;4972429;28;20394;-54
2022/06/14 00:08:32;;;;;;;24.23;14.23;;;12.40;99.90;;;;;;4971935;28;20043;-55
2022/06/14 00:10:59;;;;;;;22.17;13.85;;;12.20;99.90;;;;;;4972292;28;20517;-53
2022/06/14 00:13:28;;;;;;;21.52;14.20;;;12.30;99.90;;;;;;4972469;28;20034;-53
2022/06/14 00:15:53;;;;;;;22.77;13.85;;;12.30;99.90;;;;;;4972201;28;20167;-54
2022/06/14 00:18:19;;;;;;;23.42;14.48;;;12.10;99.90;;;;;;4972533;28;20495;-53
2022/06/14 00:20:47;;;;;;;21.58;15.15;;;12.10;99.90;;;;;;4972123;28;20474;-53
2022/06/14 00:23:13;;;;;;;;;;;12.10;99.90;;;;;;4972867;28;20081;-54
2022/06/14 00:25:44;;;;;;;23.58;15.02;;;12.20;99.90;;;;;;4971862;28;20365;-54
2022/06/14 00:28:12;;;;;;;23.20;15.73;;;12.20;99.90;;;;;;4972119;28;20034;-54
2022/06/14 00:30:40;;;;;;;37.65;16.88;;;12.30;99.90;;;;;;4972168;28;20034;-54
2022/06/14 00:33:06;;;;;;;23.65;15.35;;;12.30;99.90;;;;;;4972283;28;20038;-54
2022/06/14 00:35:32;;;;;;;26.50;15.75;;;12.30;99.90;;;;;;4970510;28;20039;-53
2022/06/14 00:38:00;;;;;;;26.60;16.02;;;12.20;99.90;;;;;;4971736;28;20030;-53
2022/06/14 00:40:30;;;;;;;28.33;16.30;;;12.10;99.90;;;;;;4971996;28;20037;-53
2022/06/14 00:42:56;;;;;;;28.90;17.15;;;12.10;99.90;;;;;;4971786;28;20027;-53
2022/06/14 00:45:21;;;;;;;24.33;14.70;;;12.20;99.90;;;;;;4971698;28;20023;-53
2022/06/14 00:48:08;;;;;;;23.08;15.25;;;12.10;99.90;;;;;;4971638;28;20430;-53
2022/06/14 00:50:47;;;;;;;25.15;15.57;;;12.00;99.90;;;;;;4971960;28;20190;-54
2022/06/14 00:53:24;;;;;;;22.48;14.93;;;12.00;99.90;;;;;;4970393;28;20026;-53
2022/06/14 00:56:00;;;;;;;23.30;15.25;;;12.10;99.90;;;;;;4969973;28;20490;-52
2022/06/14 00:58:38;;;;;;;23.67;14.38;;;12.10;99.90;;;;;;4982458;28;20533;-53
2022/06/14 01:01:05;;;;;;;;;;;12.10;99.90;;;;;;4991514;28;20023;-53
2022/06/14 01:03:39;;;;;;;25.05;13.27;;;12.20;99.90;;;;;;4990742;28;19959;-53
2022/06/14 01:06:14;;;;;;;24.33;15.30;;;12.30;99.90;;;;;;4990540;28;20027;-52
2022/06/14 01:08:51;;;;;;;21.50;12.43;;;12.30;99.90;;;;;;4990428;28;20051;-54
2022/06/14 01:11:45;;;;;;;19.67;13.38;;;12.40;99.90;;;;;;4989124;28;20040;-53
2022/06/14 01:14:17;;;;;;;25.42;13.70;;;12.10;99.90;;;;;;4988280;28;20137;-54
2022/06/14 01:16:42;;;;;;;26.38;14.95;;;12.00;99.90;;;;;;4972762;28;20039;-53
2022/06/14 01:19:22;;;;;;;23.08;13.48;;;11.90;99.90;;;;;;4990313;28;20046;-53
2022/06/14 01:22:13;;;;;;;25.98;14.07;;;11.80;99.90;;;;;;4990548;28;20034;-53
2022/06/14 01:24:41;;;;;;;24.95;14.50;;;11.70;99.90;;;;;;4990213;28;20030;-52
2022/06/14 01:27:11;;;;;;;23.02;15.02;;;11.70;99.90;;;;;;4988877;28;20027;-53
2022/06/14 01:29:40;;;;;;;25.88;14.60;;;11.80;99.90;;;;;;4988912;28;20122;-53
2022/06/14 01:32:09;;;;;;;25.77;14.55;;;11.70;99.90;;;;;;4988688;28;20480;-53
2022/06/14 01:34:40;;;;;;;23.13;13.68;;;11.60;99.90;;;;;;4990130;28;20061;-53
2022/06/14 01:37:06;;;;;;;20.25;13.93;;;11.50;99.90;;;;;;4990109;28;20034;-53
2022/06/14 01:39:32;;;;;;;27.30;14.25;;;11.50;99.90;;;;;;4989810;28;20037;-53
2022/06/14 01:42:36;;;;;;;24.80;13.35;;;11.50;99.90;;;;;;4989925;28;20022;-52
2022/06/14 01:45:17;;;;;;;25.60;13.30;;;11.40;99.90;;;;;;4959647;28;20042;-53
2022/06/14 01:48:02;;;;;;;25.52;12.98;;;11.40;99.90;;;;;;4989941;28;20026;-53
2022/06/14 01:54:03;;;;;;;19.80;12.82;;;11.50;99.90;;;;;;4990023;28;20443;-53
2022/06/14 01:56:46;;;;;;;28.50;12.20;;;11.50;99.90;;;;;;4989529;28;20650;-53
2022/06/14 01:59:40;;;;;;;21.80;11.75;;;11.30;99.90;;;;;;4989506;28;20038;-53
2022/06/14 02:02:28;;;;;;;22.30;9.98;;;11.40;99.90;;;;;;4986604;28;20035;-53
2022/06/14 02:05:12;;;;;;;24.77;11.02;;;11.30;99.90;;;;;;4989024;28;20509;-53
2022/06/14 02:08:16;;;;;;;21.33;9.88;;;11.30;99.90;;;;;;4988731;28;20062;-53
2022/06/14 02:10:50;;;;;;;18.33;9.73;;;11.40;99.90;;;;;;4968421;28;20044;-54
2022/06/14 02:13:37;;;;;;;26.50;9.70;;;11.40;99.90;;;;;;4988393;28;20026;-52
2022/06/14 02:16:13;;;;;;;12.38;8.23;;;11.40;99.90;;;;;;4989654;28;20413;-54
2022/06/14 02:18:55;;;;;;;19.50;9.63;;;11.40;99.90;;;;;;4989561;28;20039;-52
2022/06/14 02:21:42;;;;;;;21.75;9.48;;;11.30;99.90;;;;;;4989720;28;20746;-52
2022/06/14 02:24:23;;;;;;;16.75;8.50;;;11.30;99.90;;;;;;4989832;28;20053;-52
2022/06/14 02:27:09;;;;;;;19.00;8.85;;;11.30;99.90;;;;;;4989690;28;20046;-53
2022/06/14 02:29:47;;;;;;;15.02;8.73;;;11.40;99.90;;;;;;4990200;28;20374;-53
2022/06/14 02:32:51;;;;;;;18.25;8.48;;;11.50;99.90;;;;;;4989706;28;20044;-53
2022/06/14 02:35:31;;;;;;;21.35;8.60;;;11.50;99.90;;;;;;4966739;28;20038;-53
2022/06/14 02:38:00;;;;;;;18.08;9.15;;;11.40;99.90;;;;;;4989387;28;20485;-53
2022/06/14 02:40:38;;;;;;;17.33;8.25;;;11.20;99.90;;;;;;4989362;28;20453;-52
2022/06/14 02:43:40;;;;;;;20.58;8.43;;;11.10;99.90;;;;;;4989687;28;20544;-53
2022/06/14 02:46:32;;;;;;;21.80;8.85;;;11.00;99.90;;;;;;4989667;28;20114;-53
2022/06/14 02:49:12;;;;;;;18.95;8.18;;;11.10;99.90;;;;;;4989812;28;20077;-53
2022/06/14 02:51:47;;;;;;;21.05;8.20;;;11.10;99.90;;;;;;4990449;28;20023;-53
2022/06/14 02:54:23;;;;;;;23.80;7.95;;;11.10;99.90;;;;;;4989248;28;20037;-52
2022/06/14 02:56:57;;;;;;;17.38;7.70;;;11.20;99.90;;;;;;4989218;28;20185;-53
2022/06/14 02:59:52;;;;;;;17.42;8.55;;;11.40;99.90;;;;;;4978410;28;20110;-53
2022/06/14 03:02:38;;;;;;;15.38;7.85;;;11.40;99.90;;;;;;4968655;28;20039;-52
2022/06/14 03:05:13;;;;;;;17.77;7.50;;;11.30;99.90;;;;;;4969758;28;20537;-53
2022/06/14 03:07:58;;;;;;;18.98;8.25;;;11.20;99.90;;;;;;4976529;28;20047;-53
2022/06/14 03:10:32;;;;;;;21.25;8.32;;;11.20;99.90;;;;;;4976666;28;20063;-52
2022/06/14 03:13:28;;;;;;;21.80;9.00;;;11.10;99.90;;;;;;4978640;28;20101;-53
2022/06/14 03:16:08;;;;;;;16.00;7.53;;;10.80;99.90;;;;;;4978002;28;20066;-51
2022/06/14 03:18:53;;;;;;;19.58;7.72;;;10.90;99.90;;;;;;4979644;28;20034;-51
2022/06/14 03:21:21;;;;;;;20.30;8.48;;;10.80;99.90;;;;;;4989189;28;20030;-51
2022/06/14 03:24:20;;;;;;;18.27;8.00;;;10.80;99.90;;;;;;4989159;28;20030;-51
2022/06/14 03:27:05;;;;;;;18.95;7.93;;;11.00;99.90;;;;;;4973140;28;20046;-51
2022/06/14 03:29:53;;;;;;;20.42;8.60;;;11.10;99.90;;;;;;4991143;28;20073;-51
2022/06/14 03:32:24;;;;;;;18.00;7.40;;;11.20;99.90;;;;;;4992627;28;20026;-52
2022/06/14 03:34:59;;;;;;;16.27;7.57;;;11.10;99.90;;;;;;4992674;28;20037;-51
2022/06/14 03:37:25;;;;;;;14.77;7.95;;;10.90;99.90;;;;;;4992638;28;20660;-50
2022/06/14 03:39:58;;;;;;;19.23;7.47;;;10.90;99.90;;;;;;4992800;28;20118;-50
2022/06/14 03:42:24;;;;;;;17.27;6.88;;;10.80;99.90;;;;;;4992611;28;20486;-51
2022/06/14 03:44:50;;;;;;;18.90;7.85;;;10.50;99.90;;;;;;4992447;28;20065;-51
2022/06/14 03:47:23;;;;;;;19.67;7.78;;;10.60;99.90;;;;;;4992467;28;20065;-51
2022/06/14 03:50:03;;;;;;;15.18;7.07;;;10.50;99.90;;;;;;4992454;28;20113;-51
2022/06/14 03:53:01;;;;;;;20.60;7.55;;;10.60;99.90;;;;;;4992286;28;20763;-52
2022/06/14 03:56:04;;;;;;;19.15;7.47;;;10.60;99.90;;;;;;4991539;28;20632;-52
2022/06/14 03:58:33;;;;;;;16.15;6.97;;;10.60;99.90;;;;;;4991734;28;20109;-52
2022/06/14 04:01:16;;;;;;;17.75;6.78;;;10.60;99.90;;;;;;4972973;28;20053;-52
2022/06/14 04:04:07;;;;;;;23.60;7.30;;;10.70;99.90;;;;;;4972901;28;20114;-52
2022/06/14 04:07:09;;;;;;;18.13;7.65;;;10.80;99.90;;;;;;4962728;28;20049;-52
2022/06/14 04:10:02;;;;;;;21.67;7.45;;;10.90;99.90;;;;;;4972625;28;20039;-52
2022/06/14 04:12:39;;;;;;;15.85;7.60;;;10.90;99.90;;;;;;4972352;28;20030;-52
2022/06/14 04:15:49;;;;;;;25.65;8.05;;;11.10;99.90;;;;;;4972831;28;20038;-51
2022/06/14 04:18:35;;;;;;;20.60;8.30;;;11.20;99.90;;;;;;4962151;28;20030;-52
2022/06/14 04:21:38;;;;;;;17.90;7.28;;;11.20;99.90;;;;;;4972504;28;20118;-53
2022/06/14 04:24:17;;;;;;;19.55;7.60;;;11.30;99.90;;;;;;4972400;28;20019;-54
2022/06/14 04:26:52;;;;;;;14.35;6.55;;;11.30;99.90;;;;;;4972292;28;20022;-52
2022/06/14 04:29:37;;;;;;;14.13;6.30;;;11.30;99.90;;;;;;4972212;28;20062;-52
2022/06/14 04:32:12;;;;;;;14.90;7.50;;;11.40;99.90;;;;;;4972469;28;20113;-54
2022/06/14 04:34:50;;;;;;;20.00;7.53;;;11.50;99.90;;;;;;4972309;28;20067;-52
2022/06/14 04:37:25;;;;;;;19.30;8.02;;;11.50;99.90;;;;;;4955218;28;20517;-52
2022/06/14 04:40:12;;;;;;;12.02;6.40;;;11.60;99.90;;;;;;4971736;28;20030;-52
2022/06/14 04:42:47;;;;;;;20.70;8.30;;;11.70;99.90;;;;;;4971911;28;20045;-52
2022/06/14 04:45:27;;;;;;;17.33;6.75;;;11.70;99.90;;;;;;4972268;28;20023;-52
2022/06/14 04:48:03;;;;;;;16.52;7.95;;;11.80;99.90;;;;;;4970745;28;20031;-53
2022/06/14 04:50:34;;;;;;;17.52;6.22;;;11.70;99.90;;;;;;4971889;28;20133;-50
2022/06/14 04:53:17;;;;;;;16.88;6.85;;;11.80;99.90;;;;;;4972011;28;20106;-51
2022/06/14 04:55:52;;;;;;;13.80;6.13;;;11.90;99.90;;;;;;4971638;28;20038;-51
2022/06/14 04:58:24;;;;;;;12.80;6.93;;;12.00;99.90;;;;;;4972128;28;20110;-51
2022/06/14 05:00:55;;;;;;;15.95;5.82;;;12.00;99.90;;;;;;4990641;28;20065;-51
2022/06/14 05:03:24;;;;;;;15.73;6.57;;;12.10;99.90;;;;;;4991254;28;20073;-51
2022/06/14 05:05:57;;;;;;;17.80;6.18;;;12.20;99.90;;;;;;4990741;28;20050;-52
2022/06/14 05:08:43;;;;;;;13.50;5.03;;;12.30;99.90;;;;;;4990634;28;20050;-52
2022/06/14 05:11:18;;;;;;;10.93;4.45;;;12.30;99.90;;;;;;4990494;28;20050;-52
2022/06/14 05:13:56;;;;;;;8.40;4.00;;;12.30;99.90;;;;;;4990938;28;20794;-52
2022/06/14 05:16:34;;;;;;;12.77;4.13;;;12.40;99.90;;;;;;4990802;28;20054;-51
2022/06/14 05:19:29;;;;;;;8.13;3.28;;;12.40;99.90;;;;;;4990629;28;20501;-52
2022/06/14 05:22:10;;;;;;;7.88;3.35;;;12.40;99.90;;;;;;4990777;28;20026;-51
2022/06/14 05:24:37;;;;;;;12.80;4.22;;;12.40;99.90;;;;;;4990705;28;20041;-51
2022/06/14 05:27:33;;;;;;;6.47;3.80;;;12.40;99.90;;;;;;4990322;28;20136;-52
2022/06/14 05:30:18;;;;;;;10.52;4.65;;;12.50;99.90;;;;;;4990313;28;20038;-52
2022/06/14 05:33:21;;;;;;;11.48;3.53;;;12.50;99.90;;;;;;4990532;28;20127;-52
2022/06/14 05:36:17;;;;;;;8.55;3.35;;;12.60;99.90;;;;;;4990141;28;20066;-52
2022/06/14 05:38:45;;;;;;;8.48;3.58;;;12.70;99.90;;;;;;4990482;28;20029;-51
2022/06/14 05:41:18;;;;;;;5.22;3.03;;;12.70;99.90;;;;;;4990331;28;20027;-51
2022/06/14 05:44:18;;;;;;;12.05;3.78;;;12.70;99.90;;;;;;4990183;28;20026;-51
2022/06/14 05:46:53;;;;;;;9.07;3.83;;;12.80;99.90;;;;;;4966878;28;20430;-52
2022/06/14 05:49:24;;;;;;;8.13;3.35;;;12.80;99.90;;;;;;4988411;28;20065;-52
2022/06/14 05:51:55;;;;;;;8.55;3.53;;;12.90;99.90;;;;;;4977245;28;20113;-51
2022/06/14 05:54:27;;;;;;;8.18;3.42;;;12.90;99.90;;;;;;4980574;28;20090;-52
2022/06/14 05:57:36;;;;;;;9.18;3.75;;;13.00;99.90;;;;;;4980391;28;20125;-52
2022/06/14 06:00:14;;;;;;;14.35;4.68;;;13.10;99.90;;;;;;4945939;29;20535;-51
2022/06/14 06:02:53;;;;;;;9.30;3.90;;;13.10;99.90;;;;;;4975785;28;20094;-52
2022/06/14 06:05:47;;;;;;;9.38;3.58;;;13.10;99.90;;;;;;4980695;28;20030;-51
2022/06/14 06:08:46;;;;;;;6.75;2.85;;;13.30;99.90;;;;;;4977909;28;20150;-52
2022/06/14 06:11:21;;;;;;;8.23;2.97;;;13.30;99.90;;;;;;4975607;28;20094;-51
2022/06/14 06:13:49;;;;;;;10.40;3.05;;;13.40;99.90;;;;;;4978345;28;20059;-52
2022/06/14 06:17:14;;;;;;;8.18;3.17;;;13.50;99.90;;;;;;4978990;28;20121;-52
2022/06/14 06:19:30;;;;;;;10.43;4.50;;;13.60;99.90;;;;;;4974840;28;20512;-53
2022/06/14 06:22:13;;;;;;;10.15;3.22;;;13.60;99.90;;;;;;4981456;28;20541;-52
2022/06/14 06:24:57;;;;;;;10.10;3.28;;;13.70;99.90;;;;;;4979294;28;20041;-52
2022/06/14 06:27:31;;;;;;;14.40;3.35;;;13.80;99.90;;;;;;4981014;28;20084;-52
2022/06/14 06:30:20;;;;;;;7.00;2.50;;;13.80;99.90;;;;;;4989737;28;20027;-52
2022/06/14 06:32:46;;;;;;;8.60;3.30;;;13.90;99.90;;;;;;4983925;28;20034;-52
2022/06/14 06:35:13;;;;;;;9.25;3.67;;;14.00;99.90;;;;;;4978781;28;20386;-52
2022/06/14 06:37:50;;;;;;;11.57;3.03;;;14.10;99.90;;;;;;4975219;28;20053;-52
2022/06/14 06:40:21;;;;;;;6.70;3.38;;;14.10;99.90;;;;;;4979379;28;20193;-52
2022/06/14 06:43:01;;;;;;;6.75;3.90;;;14.30;99.90;;;;;;4977667;28;20030;-52
2022/06/14 06:45:34;;;;;;;8.20;3.97;;;14.30;99.90;;;;;;4979797;28;20035;-52
2022/06/14 06:48:19;;;;;;;10.27;3.80;;;14.30;99.90;;;;;;4978944;28;20019;-51
2022/06/14 06:50:51;;;;;;;6.65;3.30;;;14.40;99.90;;;;;;4979408;28;20023;-51
2022/06/14 06:53:22;;;;;;;15.80;3.60;;;14.50;99.90;;;;;;4978144;28;20077;-52
2022/06/14 06:55:58;;;;;;;9.43;2.63;;;14.50;99.90;;;;;;4978372;28;20114;-51
2022/06/14 06:58:32;;;;;;;6.28;3.00;;;14.60;99.90;;;;;;4979114;28;20095;-52
2022/06/14 07:01:01;;;;;;;7.13;2.95;;;14.60;99.90;;;;;;4978121;28;20398;-51
2022/06/14 07:03:50;;;;;;;6.57;2.90;;;14.70;99.90;;;;;;4979598;28;20050;-51
2022/06/14 07:06:22;;;;;;;;;;;14.70;99.90;;;;;;4987469;28;20576;-52
2022/06/14 07:09:15;;;;;;;9.90;2.05;;;14.70;99.90;;;;;;4986062;28;20282;-52
2022/06/14 07:11:55;;;;;;;5.30;1.63;;;14.70;99.90;;;;;;4967300;28;20043;-51
2022/06/14 07:14:24;;;;;;;7.57;4.55;;;14.90;99.90;;;;;;4976370;28;20060;-51
2022/06/14 07:17:10;;;;;;;5.63;1.85;;;15.10;99.90;;;;;;4991986;28;20112;-51
2022/06/14 07:19:44;;;;;;;5.78;1.42;;;15.10;99.90;;;;;;4991038;28;20077;-52
2022/06/14 07:22:12;;;;;;;10.85;1.58;;;15.20;99.90;;;;;;4984001;28;20121;-53
2022/06/14 07:24:58;;;;;;;5.63;2.03;;;15.30;99.90;;;;;;4983323;28;20425;-54
2022/06/14 07:27:29;;;;;;;5.32;1.80;;;15.30;99.90;;;;;;4983408;28;20039;-53
2022/06/14 07:29:58;;;;;;;5.00;1.50;;;15.30;99.90;;;;;;4981615;28;20109;-51
2022/06/14 07:32:36;;;;;;;6.78;2.97;;;15.40;99.90;;;;;;4980950;28;20034;-53
2022/06/14 07:35:02;;;;;;;4.07;1.58;;;15.60;99.90;;;;;;4983718;28;20026;-52
2022/06/14 07:37:44;;;;;;;4.30;1.50;;;15.60;99.90;;;;;;4980922;28;20047;-51
2022/06/14 07:40:30;;;;;;;5.00;1.05;;;15.60;99.90;;;;;;4981159;28;20022;-52
2022/06/14 07:43:11;;;;;;;6.95;1.88;;;15.60;99.90;;;;;;4981549;28;20030;-52
2022/06/14 07:45:42;;;;;;;5.55;1.50;;;15.70;99.90;;;;;;4982219;28;20023;-51
2022/06/14 07:48:24;;;;;;;4.35;1.30;;;15.90;99.90;;;;;;4983244;28;20058;-52
2022/06/14 07:51:15;;;;;;;5.80;1.20;;;16.00;99.90;;;;;;4972944;28;20077;-52
2022/06/14 07:53:58;;;;;;;6.68;1.92;;;16.00;99.90;;;;;;4972996;28;20066;-52
2022/06/14 07:56:31;;;;;;;2.70;1.50;;;16.20;99.90;;;;;;4972961;28;20042;-53
2022/06/14 07:59:08;;;;;;;6.65;1.40;;;16.20;99.90;;;;;;4972937;28;20031;-53
2022/06/14 08:01:45;;;;;;;4.55;1.50;;;16.10;99.90;;;;;;4983087;28;20062;-52
2022/06/14 08:04:15;;;;;;;5.70;1.15;;;16.10;99.90;;;;;;4980681;28;20026;-49
2022/06/14 08:06:41;;;;;;;7.20;1.13;;;16.20;99.90;;;;;;4980592;28;20141;-50
2022/06/14 08:09:22;;;;;;;5.85;1.45;;;16.40;99.90;;;;;;4979660;28;20174;-50
2022/06/14 08:11:51;;;;;;;29.17;17.95;;;16.50;99.90;;;;;;4984814;28;20038;-50
2022/06/14 08:14:24;;;;;;;9.88;3.85;;;16.50;99.90;;;;;;4973329;28;20110;-54
2022/06/14 08:16:52;;;;;;;6.53;2.05;;;16.60;99.90;;;;;;4978414;28;20038;-51
2022/06/14 08:19:37;;;;;;;3.97;1.10;;;16.50;99.90;;;;;;4980705;28;20022;-52
2022/06/14 08:22:34;;;;;;;5.57;1.15;;;16.60;99.90;;;;;;5002420;28;20470;-53
2022/06/14 08:25:05;;;;;;;3.78;1.05;;;16.60;99.90;;;;;;4975346;28;20069;-52
2022/06/14 08:27:37;;;;;;;6.85;1.35;;;16.80;99.90;;;;;;4975337;28;20093;-51
2022/06/14 08:30:10;;;;;;;6.05;1.48;;;17.00;99.90;;;;;;4981929;28;20057;-49
2022/06/14 08:32:58;;;;;;;3.15;1.33;;;16.90;99.90;;;;;;4985998;28;20042;-50
2022/06/14 08:35:45;;;;;;;5.07;1.35;;;16.90;99.90;;;;;;4979778;28;20027;-51
2022/06/14 08:38:13;;;;;;;8.23;1.42;;;16.80;99.90;;;;;;4980732;28;20115;-50
2022/06/14 08:40:53;;;;;;;5.82;1.30;;;16.70;99.90;;;;;;4978901;28;20025;-52
2022/06/14 08:43:37;;;;;;;11.23;1.75;;;16.80;99.90;;;;;;4976184;28;20042;-51
2022/06/14 08:46:14;;;;;;;7.32;1.75;;;16.70;99.90;;;;;;4979426;28;20046;-51
2022/06/14 08:49:00;;;;;;;4.18;1.38;;;16.90;99.90;;;;;;4981727;28;20077;-52
2022/06/14 08:51:33;;;;;;;8.95;1.63;;;17.00;99.90;;;;;;4975402;28;20144;-52
2022/06/14 08:54:38;;;;;;;4.88;1.30;;;17.10;99.90;;;;;;4972907;28;20088;-51
2022/06/14 08:57:31;;;;;;;3.45;1.52;;;17.30;99.90;;;;;;4957685;28;20519;-50
2022/06/14 09:00:44;;;;;;;6.65;1.98;;;17.30;99.90;;;;;;4972720;28;20041;-50
2022/06/14 09:03:19;;;;;;;4.40;1.50;;;17.20;99.90;;;;;;4991363;28;20037;-50
2022/06/14 09:06:32;;;;;;;4.10;1.10;;;17.30;99.90;;;;;;4972600;28;20019;-52
2022/06/14 09:09:19;;;;;;;5.53;1.70;;;17.30;99.90;;;;;;4970939;28;20051;-51
2022/06/14 09:12:09;;;;;;;11.88;3.97;;;17.20;99.90;;;;;;4977185;28;20466;-51
2022/06/14 09:14:50;;;;;;;11.73;3.03;;;17.20;99.90;;;;;;4984185;28;20031;-51
2022/06/14 09:17:38;;;;;;;5.70;2.17;;;17.20;99.90;;;;;;4992154;28;20042;-51
2022/06/14 09:20:08;;;;;;;3.97;1.40;;;17.30;99.90;;;;;;4991528;28;20066;-52
2022/06/14 09:23:01;;;;;;;3.13;1.00;;;17.50;99.90;;;;;;4991630;28;20060;-52
2022/06/14 09:25:48;;;;;;;6.18;1.80;;;17.70;99.90;;;;;;4991346;28;20648;-51
2022/06/14 09:28:22;;;;;;;6.47;1.30;;;17.90;99.90;;;;;;4989356;28;20058;-52
2022/06/14 09:31:00;;;;;;;3.63;1.05;;;17.80;98.50;;;;;;4991676;28;20462;-51
2022/06/14 09:33:59;;;;;;;4.32;1.10;;;18.00;99.20;;;;;;4986651;28;20109;-50
2022/06/14 09:36:43;;;;;;;;;;;18.00;99.90;;;;;;4976782;28;20049;-50
2022/06/14 09:39:38;;;;;;;3.50;0.73;;;17.90;97.40;;;;;;4984780;28;19920;-51
2022/06/14 09:42:25;;;;;;;3.58;1.30;;;17.80;97.60;;;;;;4980446;28;20027;-51
2022/06/14 09:45:02;;;;;;;6.75;1.52;;;17.50;98.40;;;;;;4980264;28;20026;-50
2022/06/14 09:47:28;;;;;;;2.08;1.10;;;17.50;99.90;;;;;;4981439;28;20031;-50
2022/06/14 09:50:12;;;;;;;18.58;11.75;;;17.40;99.90;;;;;;4977640;28;20050;-51
2022/06/14 09:52:50;;;;;;;18.90;10.70;;;17.30;99.90;;;;;;4981857;28;20019;-51
2022/06/14 09:55:39;;;;;;;5.38;1.20;;;17.30;99.90;;;;;;4979818;28;20035;-52
2022/06/14 09:58:26;;;;;;;7.93;1.35;;;17.40;99.90;;;;;;4982942;28;20548;-52
2022/06/14 10:01:16;;;;;;;10.77;1.45;;;17.60;99.90;;;;;;4989263;28;20031;-50
2022/06/14 10:04:03;;;;;;;5.78;1.27;;;17.80;99.90;;;;;;4979331;28;20363;-51
2022/06/14 10:06:40;;;;;;;4.57;1.55;;;17.90;99.90;;;;;;4974785;28;20096;-52
2022/06/14 10:09:13;;;;;;;3.67;0.93;;;18.00;99.50;;;;;;4990595;28;20050;-52
2022/06/14 10:11:57;;;;;;;5.68;1.20;;;17.90;97.70;;;;;;4976941;28;20073;-52
2022/06/14 10:14:35;;;;;;;4.07;1.63;;;18.10;99.90;;;;;;4979702;28;20019;-51
2022/06/14 10:17:19;;;;;;;7.93;0.90;;;18.50;98.10;;;;;;4981008;28;20034;-50
2022/06/14 10:19:53;;;;;;;5.78;1.75;;;18.70;98.20;;;;;;4978980;28;20062;-51
2022/06/14 10:22:30;;;;;;;5.22;1.58;;;18.80;99.30;;;;;;4976586;28;20018;-51
2022/06/14 10:25:13;;;;;;;2.60;0.90;;;19.10;96.50;;;;;;4990208;28;20038;-51
2022/06/14 10:28:12;;;;;;;3.78;1.33;;;19.20;98.40;;;;;;4988109;28;20064;-52
2022/06/14 10:30:51;;;;;;;6.10;1.48;;;19.40;96.80;;;;;;4998964;28;20034;-50
2022/06/14 10:33:27;;;;;;;4.13;1.10;;;19.40;94.60;;;;;;5006604;28;20116;-52
2022/06/14 10:36:12;;;;;;;3.45;1.30;;;19.30;91.20;;;;;;5007919;28;20038;-51
2022/06/14 10:38:58;;;;;;;4.60;1.30;;;19.80;94.20;;;;;;5010041;28;20049;-52
2022/06/14 10:41:30;;;;;;;4.68;1.33;;;19.90;93.10;;;;;;5010159;28;20029;-51
2022/06/14 10:44:33;;;;;;;7.78;1.20;;;19.80;93.10;;;;;;5010008;28;20026;-52
2022/06/14 10:47:04;;;;;;;5.53;1.35;;;19.70;91.70;;;;;;5010045;28;20057;-50
2022/06/14 10:49:41;;;;;;;2.45;1.10;;;19.40;94.00;;;;;;5010300;28;20040;-51
2022/06/14 10:52:22;;;;;;;6.00;1.02;;;19.50;93.30;;;;;;5009727;28;20026;-51
2022/06/14 10:55:03;;;;;;;4.55;0.80;;;19.40;92.10;;;;;;5008230;28;20030;-51
2022/06/14 10:57:47;;;;;;;3.33;1.00;;;19.60;93.20;;;;;;5008576;28;20030;-51
2022/06/14 11:00:41;;;;;;;4.88;1.00;;;19.80;92.10;;;;;;5009892;28;20028;-51
2022/06/14 11:03:32;;;;;;;2.83;0.80;;;19.80;90.30;;;;;;5008327;28;20026;-52
2022/06/14 11:06:10;;;;;;;5.88;1.23;;;19.80;90.60;;;;;;5009893;28;20029;-51
2022/06/14 11:08:51;;;;;;;;;;;19.70;89.40;;;;;;5010069;28;20406;-52
2022/06/14 11:11:42;;;;;;;5.40;1.27;;;19.70;90.50;;;;;;5009831;28;20047;-52
2022/06/14 11:14:22;;;;;;;3.85;0.98;;;19.60;88.90;;;;;;5009914;28;20071;-51
2022/06/14 11:17:10;;;;;;;6.55;1.10;;;19.50;90.50;;;;;;4990574;28;20060;-51
2022/06/14 11:20:33;;;;;;;6.07;1.23;;;19.60;90.00;;;;;;4990238;28;20382;-52
2022/06/14 11:23:06;;;;;;;7.18;1.45;;;19.70;88.20;;;;;;4948826;28;20125;-51
2022/06/14 11:25:56;;;;;;;3.83;0.77;;;19.90;88.40;;;;;;4948977;29;20110;-50
2022/06/14 11:28:46;;;;;;;2.20;0.90;;;19.90;87.70;;;;;;4976750;28;20050;-50
2022/06/14 11:31:15;;;;;;;8.95;1.67;;;20.00;90.40;;;;;;4990187;28;20030;-50
2022/06/14 11:34:11;;;;;;;6.70;1.50;;;20.20;87.70;;;;;;4989954;28;20030;-50
2022/06/14 11:37:02;;;;;;;3.65;0.90;;;20.20;88.30;;;;;;4990096;28;20070;-51
2022/06/14 11:39:57;;;;;;;5.45;0.75;;;20.20;82.30;;;;;;4989135;28;20033;-51
2022/06/14 11:42:31;;;;;;;3.75;1.02;;;20.50;84.30;;;;;;4987742;28;20033;-51
2022/06/14 11:45:18;;;;;;;4.00;1.02;;;20.50;77.90;;;;;;4987809;28;20385;-51
2022/06/14 11:48:07;;;;;;;4.97;0.98;;;20.60;75.30;;;;;;4989105;28;20104;-51
2022/06/14 11:50:44;;;;;;;7.45;1.20;;;20.70;77.80;;;;;;4989569;28;20034;-51
2022/06/14 11:53:13;;;;;;;4.22;1.02;;;20.60;73.50;;;;;;4992784;28;20041;-51
2022/06/14 11:55:41;;;;;;;6.97;2.72;;;20.70;77.90;;;;;;4992468;28;20050;-50
2022/06/14 11:58:16;;;;;;;8.05;2.42;;;20.90;80.30;;;;;;4992748;28;20023;-50
2022/06/14 12:00:50;;;;;;;3.58;1.27;;;21.10;76.90;;;;;;4992275;28;20060;-50
2022/06/14 12:03:37;;;;;;;6.93;2.08;;;21.40;81.60;;;;;;4991163;28;20034;-50
2022/06/14 12:06:19;;;;;;;10.82;6.00;;;21.60;78.30;;;;;;4992507;28;20030;-50
2022/06/14 12:09:16;;;;;;;5.28;1.58;;;21.80;77.20;;;;;;4992086;28;20468;-50
2022/06/14 12:12:05;;;;;;;3.92;1.27;;;21.90;77.10;;;;;;4981782;28;20047;-51
2022/06/14 12:14:57;;;;;;;6.38;1.23;;;22.00;74.40;;;;;;4962736;28;20113;-51
2022/06/14 12:17:48;;;;;;;5.47;1.73;;;21.80;76.70;;;;;;4964905;28;20683;-51
2022/06/14 12:20:17;;;;;;;2.90;1.10;;;22.00;72.90;;;;;;4972827;28;20367;-51
2022/06/14 12:23:01;;;;;;;4.45;1.10;;;22.00;70.60;;;;;;4972806;28;20050;-50
2022/06/14 12:28:36;;;;;;;3.17;0.85;;;21.50;77.00;;;;;;4980899;28;20632;-50
2022/06/14 12:31:16;;;;;;;2.80;0.95;;;22.00;83.00;;;;;;4980053;28;20058;-51
2022/06/14 12:33:52;;;;;;;3.72;0.80;;;22.10;66.20;;;;;;4979878;28;20039;-50
2022/06/14 12:36:40;;;;;;;6.63;1.25;;;22.20;60.10;;;;;;4979197;28;20062;-51
2022/06/14 12:39:11;;;;;;;;;;;21.80;66.00;;;;;;4971985;28;20038;-51
2022/06/14 12:41:50;;;;;;;4.38;1.10;;;21.90;70.10;;;;;;4972955;28;19993;-51
2022/06/14 12:44:46;;;;;;;13.15;1.98;;;21.80;70.40;;;;;;4977326;28;20034;-50
2022/06/14 12:47:25;;;;;;;3.90;0.88;;;22.30;69.20;;;;;;4984910;28;20026;-51
2022/06/14 12:49:56;;;;;;;9.05;1.13;;;22.00;70.10;;;;;;4981233;28;20056;-50
2022/06/14 12:52:28;;;;;;;5.90;0.82;;;21.50;66.90;;;;;;4980832;28;20026;-50
2022/06/14 12:55:12;;;;;;;5.72;1.50;;;21.20;71.70;;;;;;4979657;28;20505;-50
2022/06/14 12:57:54;;;;;;;4.20;1.38;;;20.90;71.60;;;;;;4980481;28;20503;-51
2022/06/14 13:00:25;;;;;;;6.65;1.75;;;20.60;71.40;;;;;;4981010;28;20058;-51
2022/06/14 13:03:00;;;;;;;18.38;2.13;;;20.70;75.20;;;;;;4978933;28;20034;-50
2022/06/14 13:05:43;;;;;;;8.07;2.00;;;21.10;79.60;;;;;;4980377;28;20070;-51
2022/06/14 13:08:45;;;;;;;10.57;1.25;;;21.20;73.90;;;;;;4980513;28;20453;-51
2022/06/14 13:11:19;;;;;;;3.35;1.15;;;21.60;73.40;;;;;;4981667;28;20494;-52
2022/06/14 13:14:09;;;;;;;9.02;1.52;;;21.70;78.10;;;;;;4980941;28;20418;-52
2022/06/14 13:16:53;;;;;;;5.63;1.15;;;21.90;71.10;;;;;;4979866;28;20031;-52
2022/06/14 13:19:40;;;;;;;5.60;1.08;;;22.20;75.80;;;;;;4980019;28;20023;-51
2022/06/14 13:22:40;;;;;;;9.05;1.50;;;22.10;72.80;;;;;;4980862;28;20093;-51
2022/06/14 13:25:43;;;;;;;5.25;1.17;;;22.40;71.10;;;;;;4979371;28;20039;-52
2022/06/14 13:28:29;;;;;;;5.53;1.00;;;22.30;66.30;;;;;;4978998;28;20026;-52
2022/06/14 13:31:30;;;;;;;5.20;1.02;;;22.00;68.80;;;;;;4973941;28;20041;-52
2022/06/14 13:34:23;;;;;;;3.60;0.88;;;22.40;71.30;;;;;;4964099;28;20041;-52
2022/06/14 13:37:20;;;;;;;6.00;0.85;;;22.70;67.20;;;;;;4981233;28;20035;-52
2022/06/14 13:40:08;;;;;;;5.85;1.60;;;22.70;65.40;;;;;;4980730;28;20430;-52
2022/06/14 13:42:42;;;;;;;4.53;1.23;;;22.80;65.70;;;;;;4981281;28;20026;-52
2022/06/14 13:45:38;;;;;;;9.48;1.58;;;23.10;66.20;;;;;;4981084;28;20146;-50
2022/06/14 13:48:12;;;;;;;4.20;0.90;;;23.00;60.60;;;;;;4980401;28;20451;-52
2022/06/14 13:51:17;;;;;;;4.22;0.88;;;23.10;63.40;;;;;;4979400;28;20723;-51
2022/06/14 13:54:07;;;;;;;4.50;1.23;;;23.40;59.60;;;;;;4980039;28;20434;-50
2022/06/14 13:56:36;;;;;;;1.65;0.50;;;23.60;59.10;;;;;;4988990;28;20062;-52
2022/06/14 13:59:06;;;;;;;10.48;1.00;;;23.60;61.10;;;;;;4989293;28;20026;-52